createdAt,value
2023-04-12T00:01:14.328Z,7.37
2023-04-12T00:03:21.022Z,7.37
2023-04-12T00:05:27.586Z,7.38
2023-04-12T00:07:30.344Z,7.43
2023-04-12T00:09:36.553Z,7.43
2023-04-12T00:11:39.247Z,7.44
2023-04-12T00:13:41.971Z,7.43
2023-04-12T00:15:46.183Z,7.41
2023-04-12T00:17:48.875Z,7.39
2023-04-12T00:19:51.532Z,7.40
2023-04-12T00:21:54.247Z,7.36
2023-04-12T00:23:57.404Z,7.36
2023-04-12T00:26:00.300Z,7.36
2023-04-12T00:28:02.946Z,7.34
2023-04-12T00:30:07.621Z,7.31
2023-04-12T00:32:10.395Z,7.28
2023-04-12T00:34:13.038Z,7.27
2023-04-12T00:36:16.136Z,7.27
2023-04-12T00:38:19.177Z,7.26
2023-04-12T00:40:22.464Z,7.24
2023-04-12T00:42:25.285Z,7.24
2023-04-12T00:44:27.926Z,7.23
2023-04-12T00:46:31.256Z,7.22
2023-04-12T00:48:34.418Z,7.21
2023-04-12T00:50:37.114Z,7.20
2023-04-12T00:52:40.309Z,7.25
2023-04-12T00:54:44.465Z,7.27
2023-04-12T00:56:47.465Z,7.24
2023-04-12T00:58:50.276Z,7.23
2023-04-12T01:00:56.008Z,7.22
2023-04-12T01:02:59.532Z,7.18
2023-04-12T01:05:03.188Z,7.14
2023-04-12T01:07:45.228Z,7.12
2023-04-12T01:09:59.081Z,7.09
2023-04-12T01:12:09.116Z,7.07
2023-04-12T01:14:33.119Z,7.08
2023-04-12T01:16:47.945Z,7.08
2023-04-12T01:18:52.343Z,7.08
2023-04-12T01:21:08.199Z,7.11
2023-04-12T01:23:48.210Z,7.12
2023-04-12T01:26:24.603Z,7.11
2023-04-12T01:28:34.927Z,7.07
2023-04-12T01:30:39.652Z,7.09
2023-04-12T01:32:45.824Z,7.10
2023-04-12T01:34:49.380Z,7.07
2023-04-12T01:36:53.279Z,7.05
2023-04-12T01:38:56.992Z,7.06
2023-04-12T01:41:00.592Z,7.05
2023-04-12T01:43:11.829Z,7.03
2023-04-12T01:45:14.629Z,6.93
2023-04-12T01:47:17.503Z,6.97
2023-04-12T01:49:22.515Z,6.95
2023-04-12T01:51:51.288Z,6.94
2023-04-12T01:54:11.233Z,6.90
2023-04-12T01:56:17.013Z,6.88
2023-04-12T01:58:22.950Z,6.89
2023-04-12T02:00:27.915Z,6.87
2023-04-12T02:02:31.141Z,6.87
2023-04-12T02:04:38.604Z,6.90
2023-04-12T02:06:42.808Z,6.91
2023-04-12T02:08:45.958Z,6.95
2023-04-12T02:10:48.615Z,6.99
2023-04-12T02:12:51.865Z,7.06
2023-04-12T02:14:54.670Z,7.09
2023-04-12T02:16:58.676Z,7.10
2023-04-12T02:19:01.493Z,7.11
2023-04-12T02:21:04.321Z,7.12
2023-04-12T02:23:07.002Z,7.13
2023-04-12T02:25:09.921Z,7.17
2023-04-12T02:27:12.600Z,7.21
2023-04-12T02:29:15.234Z,7.24
2023-04-12T02:31:18.884Z,7.23
2023-04-12T02:33:28.490Z,7.29
2023-04-12T02:35:32.382Z,7.34
2023-04-12T02:37:35.044Z,7.37
2023-04-12T02:39:37.701Z,7.40
2023-04-12T02:41:40.546Z,7.48
2023-04-12T02:43:43.225Z,7.58
2023-04-12T02:45:47.122Z,7.62
2023-04-12T02:47:49.837Z,7.66
2023-04-12T02:49:52.520Z,7.73
2023-04-12T02:51:55.861Z,7.78
2023-04-12T02:53:58.668Z,7.81
2023-04-12T02:56:01.833Z,7.87
2023-04-12T02:58:04.492Z,7.92
2023-04-12T03:00:17.044Z,7.96
2023-04-12T03:02:21.373Z,8.00
2023-04-12T03:04:30.156Z,8.04
2023-04-12T03:06:33.160Z,8.07
2023-04-12T03:08:36.432Z,8.09
2023-04-12T03:10:39.589Z,8.13
2023-04-12T03:12:42.363Z,8.17
2023-04-12T03:14:44.954Z,8.21
2023-04-12T03:16:49.294Z,8.23
2023-04-12T03:18:52.158Z,8.27
2023-04-12T03:20:54.739Z,8.32
2023-04-12T03:22:57.462Z,8.36
2023-04-12T03:25:00.130Z,8.42
2023-04-12T03:27:04.069Z,8.46
2023-04-12T03:29:10.090Z,8.51
2023-04-12T03:31:14.022Z,8.56
2023-04-12T03:33:16.745Z,8.61
2023-04-12T03:35:19.643Z,8.63
2023-04-12T03:37:22.307Z,8.68
2023-04-12T03:39:25.239Z,8.72
2023-04-12T03:41:29.121Z,8.72
2023-04-12T03:43:36.112Z,8.78
2023-04-12T03:45:38.875Z,8.79
2023-04-12T03:47:42.061Z,8.82
2023-04-12T03:49:51.395Z,8.85
2023-04-12T03:52:00.442Z,8.89
2023-04-12T03:54:03.124Z,8.89
2023-04-12T03:56:06.106Z,9.00
2023-04-12T03:58:08.700Z,9.04
2023-04-12T04:00:12.691Z,9.07
2023-04-12T04:02:16.135Z,9.10
2023-04-12T04:04:19.136Z,9.17
2023-04-12T04:06:22.134Z,9.23
2023-04-12T04:08:24.798Z,9.29
2023-04-12T04:10:28.425Z,9.35
2023-04-12T04:12:31.399Z,9.44
2023-04-12T04:14:37.045Z,9.47
2023-04-12T04:16:40.848Z,9.51
2023-04-12T04:18:43.820Z,9.55
2023-04-12T04:20:46.542Z,9.55
2023-04-12T04:22:49.203Z,9.59
2023-04-12T04:24:51.943Z,9.61
2023-04-12T04:26:54.764Z,9.67
2023-04-12T04:29:01.875Z,9.73
2023-04-12T04:31:06.543Z,9.79
2023-04-12T04:33:09.208Z,9.83
2023-04-12T04:35:12.491Z,9.90
2023-04-12T04:37:16.253Z,9.87
2023-04-12T04:39:18.839Z,9.97
2023-04-12T04:41:22.942Z,10.01
2023-04-12T04:43:26.508Z,10.07
2023-04-12T04:45:30.711Z,10.09
2023-04-12T04:47:33.463Z,10.15
2023-04-12T04:49:39.105Z,10.21
2023-04-12T04:51:41.763Z,10.30
2023-04-12T04:53:44.780Z,10.36
2023-04-12T04:55:47.959Z,10.43
2023-04-12T04:57:51.299Z,10.50
2023-04-12T04:59:54.028Z,10.58
2023-04-12T05:01:56.665Z,10.60
2023-04-12T05:03:59.712Z,10.61
2023-04-12T05:06:03.547Z,10.62
2023-04-12T05:08:06.391Z,10.64
2023-04-12T05:10:10.074Z,10.68
2023-04-12T05:12:12.737Z,10.76
2023-04-12T05:14:15.943Z,10.89
2023-04-12T05:16:20.049Z,11.00
2023-04-12T05:18:24.674Z,11.08
2023-04-12T05:20:29.241Z,11.12
2023-04-12T05:22:33.077Z,11.10
2023-04-12T05:24:37.074Z,11.16
2023-04-12T05:26:41.074Z,11.25
2023-04-12T05:28:44.929Z,11.35
2023-04-12T05:30:48.532Z,11.43
2023-04-12T05:32:51.726Z,11.50
2023-04-12T05:34:55.100Z,11.49
2023-04-12T05:36:59.788Z,11.52
2023-04-12T05:39:03.144Z,11.59
2023-04-12T05:41:06.682Z,11.64
2023-04-12T05:43:13.756Z,11.73
2023-04-12T05:45:16.456Z,11.71
2023-04-12T05:47:19.454Z,11.80
2023-04-12T05:49:26.163Z,11.93
2023-04-12T05:51:40.501Z,12.00
2023-04-12T05:53:44.534Z,12.13
2023-04-12T05:55:48.666Z,12.20
2023-04-12T05:57:53.299Z,12.26
2023-04-12T05:59:56.541Z,12.36
2023-04-12T06:02:00.784Z,12.39
2023-04-12T06:04:04.535Z,12.44
2023-04-12T06:06:08.329Z,12.53
2023-04-12T06:08:13.307Z,12.62
2023-04-12T06:10:17.869Z,12.65
2023-04-12T06:12:21.556Z,12.69
2023-04-12T06:14:24.670Z,12.71
2023-04-12T06:16:28.305Z,12.75
2023-04-12T06:18:31.761Z,12.80
2023-04-12T06:20:34.699Z,12.88
2023-04-12T06:22:38.396Z,12.96
2023-04-12T06:24:41.836Z,13.04
2023-04-12T06:26:47.192Z,13.10
2023-04-12T06:28:50.136Z,13.12
2023-04-12T06:30:54.117Z,13.11
2023-04-12T06:32:57.044Z,13.16
2023-04-12T06:34:59.769Z,13.23
2023-04-12T06:37:02.494Z,13.27
2023-04-12T06:39:05.240Z,13.29
2023-04-12T06:41:07.960Z,13.35
2023-04-12T06:43:10.595Z,13.42
2023-04-12T06:45:13.274Z,13.44
2023-04-12T06:47:16.197Z,13.49
2023-04-12T06:49:19.970Z,13.48
2023-04-12T06:51:22.967Z,13.53
2023-04-12T06:53:26.019Z,13.63
2023-04-12T06:55:29.469Z,13.71
2023-04-12T06:57:32.190Z,13.74
2023-04-12T06:59:35.143Z,13.70
2023-04-12T07:01:37.986Z,13.83
2023-04-12T07:03:41.266Z,13.89
2023-04-12T07:05:45.244Z,13.74
2023-04-12T07:07:47.906Z,14.02
2023-04-12T07:09:52.430Z,14.07
2023-04-12T07:11:55.060Z,14.11
2023-04-12T07:13:59.361Z,14.17
2023-04-12T07:16:02.208Z,14.21
2023-04-12T07:18:05.021Z,14.26
2023-04-12T07:20:08.221Z,14.30
2023-04-12T07:22:12.529Z,14.30
2023-04-12T07:24:16.704Z,14.34
2023-04-12T07:26:19.639Z,14.38
2023-04-12T07:28:22.317Z,14.38
2023-04-12T07:30:25.825Z,14.42
2023-04-12T07:32:28.745Z,14.35
2023-04-12T07:34:31.731Z,14.28
2023-04-12T07:36:34.484Z,14.22
2023-04-12T07:38:37.233Z,14.17
2023-04-12T07:40:40.194Z,14.26
2023-04-12T07:42:42.988Z,14.43
2023-04-12T07:44:45.748Z,14.61
2023-04-12T07:46:48.455Z,14.64
2023-04-12T07:48:52.002Z,14.52
2023-04-12T07:50:54.702Z,14.55
2023-04-12T07:53:20.625Z,14.73
2023-04-12T07:55:23.432Z,14.84
2023-04-12T07:57:27.060Z,14.83
2023-04-12T07:59:30.872Z,14.84
2023-04-12T08:01:33.683Z,14.75
2023-04-12T08:03:36.695Z,14.78
2023-04-12T08:05:41.052Z,14.82
2023-04-12T08:07:44.270Z,14.86
2023-04-12T08:09:47.501Z,14.96
2023-04-12T08:11:50.209Z,15.14
2023-04-12T08:13:53.901Z,15.27
2023-04-12T08:15:56.657Z,15.40
2023-04-12T08:17:59.616Z,15.52
2023-04-12T08:20:04.775Z,15.60
2023-04-12T08:22:08.508Z,15.65
2023-04-12T08:24:11.248Z,15.44
2023-04-12T08:26:13.846Z,15.57
2023-04-12T08:28:17.031Z,15.70
2023-04-12T08:30:20.018Z,15.85
2023-04-12T08:32:23.975Z,15.95
2023-04-12T08:34:28.089Z,16.05
2023-04-12T08:36:31.073Z,16.18
2023-04-12T08:38:44.809Z,16.20
2023-04-12T08:40:48.715Z,15.93
2023-04-12T08:42:53.153Z,15.83
2023-04-12T08:44:55.937Z,15.89
2023-04-12T08:46:58.860Z,15.83
2023-04-12T08:49:01.516Z,15.69
2023-04-12T08:51:05.242Z,15.74
2023-04-12T08:53:11.042Z,15.99
2023-04-12T08:55:13.991Z,16.18
2023-04-12T08:57:19.373Z,16.25
2023-04-12T08:59:22.889Z,16.40
2023-04-12T09:01:26.177Z,16.54
2023-04-12T09:03:32.899Z,16.62
2023-04-12T09:05:36.536Z,16.74
2023-04-12T09:07:39.290Z,16.86
2023-04-12T09:09:46.811Z,16.88
2023-04-12T09:11:49.642Z,16.80
2023-04-12T09:13:53.903Z,16.57
2023-04-12T09:15:56.661Z,16.58
2023-04-12T09:18:16.651Z,16.80
2023-04-12T09:20:21.772Z,16.90
2023-04-12T09:22:40.135Z,17.05
2023-04-12T09:24:48.820Z,17.19
2023-04-12T09:27:07.655Z,17.30
2023-04-12T09:29:26.020Z,17.02
2023-04-12T09:31:28.966Z,16.89
2023-04-12T09:33:39.651Z,16.78
2023-04-12T09:35:43.315Z,17.02
2023-04-12T09:37:46.520Z,17.27
2023-04-12T09:40:00.587Z,17.26
2023-04-12T09:42:18.122Z,16.99
2023-04-12T09:44:30.834Z,16.89
2023-04-12T09:46:34.207Z,17.06
2023-04-12T09:48:39.373Z,17.11
2023-04-12T09:50:42.872Z,16.95
2023-04-12T09:52:46.097Z,16.87
2023-04-12T09:54:49.004Z,16.74
2023-04-12T09:56:52.092Z,16.82
2023-04-12T09:58:55.783Z,16.71
2023-04-12T10:01:02.941Z,16.57
2023-04-12T10:03:07.502Z,16.58
2023-04-12T10:05:13.704Z,16.75
2023-04-12T10:07:17.347Z,16.79
2023-04-12T10:09:20.018Z,16.78
2023-04-12T10:11:22.743Z,16.59
2023-04-12T10:13:27.291Z,16.62
2023-04-12T10:15:30.716Z,16.65
2023-04-12T10:17:36.061Z,16.89
2023-04-12T10:19:40.271Z,17.16
2023-04-12T10:21:43.179Z,17.29
2023-04-12T10:23:47.461Z,17.43
2023-04-12T10:25:50.592Z,17.51
2023-04-12T10:27:53.871Z,17.52
2023-04-12T10:30:23.698Z,17.72
2023-04-12T10:32:27.063Z,17.90
2023-04-12T10:34:32.812Z,18.03
2023-04-12T10:36:56.931Z,18.13
2023-04-12T10:39:11.282Z,17.95
2023-04-12T10:41:21.098Z,17.88
2023-04-12T10:43:23.995Z,17.81
2023-04-12T10:45:32.543Z,17.83
2023-04-12T10:47:50.793Z,18.02
2023-04-12T10:50:32.526Z,18.11
2023-04-12T10:52:39.387Z,18.05
2023-04-12T10:54:42.396Z,18.30
2023-04-12T10:56:46.818Z,18.49
2023-04-12T10:58:49.696Z,18.68
2023-04-12T11:00:58.916Z,18.84
2023-04-12T11:03:07.882Z,18.95
2023-04-12T11:05:11.737Z,19.04
2023-04-12T11:07:14.907Z,19.17
2023-04-12T11:09:19.038Z,19.16
2023-04-12T11:11:22.989Z,18.85
2023-04-12T11:13:27.632Z,18.79
2023-04-12T11:15:34.278Z,18.95
2023-04-12T11:17:37.917Z,18.94
2023-04-12T11:19:49.363Z,18.90
2023-04-12T11:21:52.402Z,18.65
2023-04-12T11:23:55.956Z,18.59
2023-04-12T11:25:59.372Z,18.48
2023-04-12T11:28:02.716Z,18.73
2023-04-12T11:30:07.602Z,19.14
2023-04-12T11:32:16.051Z,19.13
2023-04-12T11:34:20.167Z,18.95
2023-04-12T11:36:22.982Z,19.14
2023-04-12T11:38:25.982Z,19.34
2023-04-12T11:40:28.868Z,19.63
2023-04-12T11:42:33.080Z,19.73
2023-04-12T11:44:52.489Z,19.74
2023-04-12T11:46:58.773Z,19.89
2023-04-12T11:49:01.737Z,20.01
2023-04-12T11:51:25.480Z,20.12
2023-04-12T11:53:32.231Z,19.95
2023-04-12T11:55:34.971Z,19.73
2023-04-12T11:57:39.266Z,19.73
2023-04-12T11:59:45.314Z,19.68
2023-04-12T12:01:51.725Z,19.92
2023-04-12T12:03:55.441Z,19.81
2023-04-12T12:05:59.021Z,20.05
2023-04-12T12:08:06.380Z,20.41
2023-04-12T12:10:09.987Z,20.70
2023-04-12T12:12:13.709Z,20.81
2023-04-12T12:14:20.985Z,20.78
2023-04-12T12:16:28.578Z,20.99
2023-04-12T12:18:31.625Z,20.71
2023-04-12T12:20:40.273Z,20.65
2023-04-12T12:22:47.625Z,20.90
2023-04-12T12:24:59.625Z,21.23
2023-04-12T12:27:03.659Z,21.58
2023-04-12T12:29:09.372Z,21.63
2023-04-12T12:31:12.744Z,21.79
2023-04-12T12:33:23.146Z,22.07
2023-04-12T12:35:34.737Z,22.13
2023-04-12T12:37:37.658Z,22.28
2023-04-12T12:39:40.489Z,22.50
2023-04-12T12:41:43.221Z,22.56
2023-04-12T12:43:53.255Z,22.64
2023-04-12T12:45:56.120Z,23.00
2023-04-12T12:48:04.082Z,22.84
2023-04-12T12:50:07.371Z,22.19
2023-04-12T12:52:10.124Z,21.86
2023-04-12T12:54:12.817Z,21.86
2023-04-12T12:56:16.331Z,21.79
2023-04-12T12:58:19.077Z,21.98
2023-04-12T13:00:24.954Z,22.26
2023-04-12T13:02:27.799Z,22.50
2023-04-12T13:04:30.874Z,22.76
2023-04-12T13:06:33.716Z,22.60
2023-04-12T13:08:37.483Z,22.27
2023-04-12T13:10:40.319Z,22.37
2023-04-12T13:12:43.237Z,22.60
2023-04-12T13:14:46.258Z,22.86
2023-04-12T13:16:49.515Z,22.60
2023-04-12T13:18:52.612Z,22.69
2023-04-12T13:20:55.382Z,22.63
2023-04-12T13:22:58.178Z,22.49
2023-04-12T13:25:02.146Z,22.87
2023-04-12T13:27:08.602Z,23.04
2023-04-12T13:29:11.237Z,22.84
2023-04-12T13:31:13.988Z,22.74
2023-04-12T13:33:20.121Z,22.63
2023-04-12T13:35:24.571Z,22.47
2023-04-12T13:37:27.519Z,22.22
2023-04-12T13:39:33.096Z,22.60
2023-04-12T13:41:36.362Z,22.24
2023-04-12T13:43:39.032Z,22.11
2023-04-12T13:45:41.840Z,21.90
2023-04-12T13:47:44.639Z,21.81
2023-04-12T13:49:47.491Z,21.88
2023-04-12T13:51:50.658Z,21.78
2023-04-12T13:53:53.712Z,22.17
2023-04-12T13:55:57.595Z,22.19
2023-04-12T13:58:00.311Z,22.21
2023-04-12T14:00:03.063Z,22.04
2023-04-12T14:02:06.685Z,22.24
2023-04-12T14:04:09.560Z,22.56
2023-04-12T14:06:12.362Z,22.84
2023-04-12T14:08:15.159Z,22.92
2023-04-12T14:10:18.219Z,23.11
2023-04-12T14:12:21.170Z,23.33
2023-04-12T14:14:25.604Z,23.44
2023-04-12T14:16:28.334Z,23.52
2023-04-12T14:18:31.053Z,23.64
2023-04-12T14:20:33.811Z,23.61
2023-04-12T14:22:37.158Z,23.59
2023-04-12T14:24:40.401Z,23.49
2023-04-12T14:26:43.183Z,22.94
2023-04-12T14:28:45.814Z,22.72
2023-04-12T14:30:51.676Z,23.04
2023-04-12T14:32:54.624Z,23.10
2023-04-12T14:34:57.514Z,22.51
2023-04-12T14:37:00.746Z,22.31
2023-04-12T14:39:04.211Z,21.99
2023-04-12T14:41:08.976Z,21.83
2023-04-12T14:43:11.786Z,21.93
2023-04-12T14:45:15.670Z,22.10
2023-04-12T14:47:18.585Z,21.90
2023-04-12T14:49:21.399Z,21.52
2023-04-12T14:51:24.328Z,21.24
2023-04-12T14:53:27.352Z,21.08
2023-04-12T14:55:30.238Z,20.87
2023-04-12T14:57:35.704Z,21.04
2023-04-12T14:59:38.573Z,21.16
2023-04-12T15:01:42.221Z,20.90
2023-04-12T15:03:46.186Z,20.85
2023-04-12T15:05:49.037Z,20.81
2023-04-12T15:07:51.831Z,20.38
2023-04-12T15:09:55.638Z,20.38
2023-04-12T15:12:01.594Z,20.14
2023-04-12T15:14:05.351Z,19.95
2023-04-12T15:16:09.419Z,19.58
2023-04-12T15:18:12.234Z,19.21
2023-04-12T15:20:17.440Z,19.00
2023-04-12T15:22:20.381Z,18.80
2023-04-12T15:24:24.020Z,18.38
2023-04-12T15:26:26.735Z,18.26
2023-04-12T15:28:29.990Z,18.09
2023-04-12T15:30:32.680Z,17.82
2023-04-12T15:32:39.806Z,17.73
2023-04-12T15:34:44.195Z,17.63
2023-04-12T15:36:46.992Z,17.49
2023-04-12T15:38:51.614Z,17.29
2023-04-12T15:40:59.460Z,17.09
2023-04-12T15:43:02.482Z,16.98
2023-04-12T15:45:05.815Z,16.79
2023-04-12T15:47:11.670Z,16.63
2023-04-12T15:49:15.065Z,16.58
2023-04-12T15:51:17.887Z,16.53
2023-04-12T15:53:22.576Z,16.39
2023-04-12T15:55:25.471Z,16.31
2023-04-12T15:57:28.583Z,16.23
2023-04-12T15:59:32.186Z,16.13
2023-04-12T16:01:36.122Z,16.04
2023-04-12T16:03:39.217Z,15.86
2023-04-12T16:05:44.501Z,15.83
2023-04-12T16:07:51.180Z,15.75
2023-04-12T16:09:54.100Z,15.64
2023-04-12T16:11:57.922Z,15.60
2023-04-12T16:14:02.502Z,15.53
2023-04-12T16:16:06.173Z,15.45
2023-04-12T16:18:09.444Z,15.38
2023-04-12T16:20:17.043Z,15.30
2023-04-12T16:22:21.065Z,15.24
2023-04-12T16:24:23.926Z,15.17
2023-04-12T16:26:27.690Z,15.13
2023-04-12T16:28:30.806Z,15.06
2023-04-12T16:30:34.414Z,15.01
2023-04-12T16:32:38.786Z,15.00
2023-04-12T16:34:43.109Z,14.93
2023-04-12T16:36:46.199Z,14.88
2023-04-12T16:38:49.797Z,14.84
2023-04-12T16:40:52.703Z,14.73
2023-04-12T16:42:56.128Z,14.69
2023-04-12T16:44:59.190Z,14.63
2023-04-12T16:47:02.189Z,14.55
2023-04-12T16:49:06.028Z,14.53
2023-04-12T16:51:09.108Z,14.47
2023-04-12T16:53:12.546Z,14.41
2023-04-12T16:55:16.231Z,14.37
2023-04-12T16:57:19.153Z,14.32
2023-04-12T16:59:22.280Z,14.27
2023-04-12T17:01:25.212Z,14.24
2023-04-12T17:03:28.473Z,14.22
2023-04-12T17:05:32.792Z,14.19
2023-04-12T17:07:35.828Z,14.17
2023-04-12T17:09:38.608Z,14.12
2023-04-12T17:11:41.629Z,14.09
2023-04-12T17:13:44.930Z,14.04
2023-04-12T17:15:50.595Z,13.99
2023-04-12T17:18:00.467Z,13.96
2023-04-12T17:20:06.357Z,13.90
2023-04-12T17:22:10.303Z,13.90
2023-04-12T17:24:16.698Z,13.81
2023-04-12T17:26:26.124Z,13.83
2023-04-12T17:28:43.937Z,13.80
2023-04-12T17:30:48.471Z,13.60
2023-04-12T17:32:52.299Z,13.71
2023-04-12T17:34:55.525Z,13.69
2023-04-12T17:37:00.063Z,13.62
2023-04-12T17:39:05.353Z,13.57
2023-04-12T17:41:09.681Z,13.53
2023-04-12T17:43:13.130Z,13.50
2023-04-12T17:45:17.850Z,13.46
2023-04-12T17:47:21.138Z,13.43
2023-04-12T17:49:25.732Z,13.40
2023-04-12T17:51:29.819Z,13.35
2023-04-12T17:53:32.791Z,13.29
2023-04-12T17:55:38.171Z,13.26
2023-04-12T17:57:42.145Z,13.20
2023-04-12T17:59:44.927Z,13.17
2023-04-12T18:01:47.815Z,13.11
2023-04-12T18:03:50.807Z,13.07
2023-04-12T18:05:55.810Z,13.01
2023-04-12T18:07:59.770Z,12.93
2023-04-12T18:10:03.488Z,12.96
2023-04-12T18:12:06.732Z,12.92
2023-04-12T18:14:11.148Z,12.89
2023-04-12T18:16:14.323Z,12.89
2023-04-12T18:18:17.165Z,12.87
2023-04-12T18:20:20.086Z,12.86
2023-04-12T18:22:22.924Z,12.83
2023-04-12T18:24:35.438Z,12.81
2023-04-12T18:26:39.228Z,12.78
2023-04-12T18:28:42.176Z,12.76
2023-04-12T18:30:44.931Z,12.76
2023-04-12T18:32:48.141Z,12.69
2023-04-12T18:35:02.568Z,12.66
2023-04-12T18:37:19.836Z,12.58
2023-04-12T18:39:36.342Z,12.52
2023-04-12T18:42:03.310Z,12.48
2023-04-12T18:44:44.189Z,12.42
2023-04-12T18:47:15.608Z,12.39
2023-04-12T18:49:29.945Z,12.31
2023-04-12T18:51:50.160Z,12.21
2023-04-12T18:53:58.616Z,12.15
2023-04-12T18:56:18.489Z,12.08
2023-04-12T18:58:29.767Z,11.97
2023-04-12T19:00:47.017Z,11.91
2023-04-12T19:03:01.298Z,11.86
2023-04-12T19:05:11.912Z,11.80
2023-04-12T19:07:14.875Z,11.75
2023-04-12T19:09:17.715Z,11.73
2023-04-12T19:11:20.395Z,11.69
2023-04-12T19:13:23.353Z,11.65
2023-04-12T19:15:26.073Z,11.60
2023-04-12T19:17:29.729Z,11.56
2023-04-12T19:19:32.441Z,11.52
2023-04-12T19:21:35.714Z,11.49
2023-04-12T19:23:38.407Z,11.48
2023-04-12T19:25:41.391Z,11.47
2023-04-12T19:27:44.094Z,11.42
2023-04-12T19:29:46.868Z,11.40
2023-04-12T19:31:49.947Z,11.35
2023-04-12T19:33:54.048Z,11.30
2023-04-12T19:35:56.892Z,11.28
2023-04-12T19:37:59.998Z,11.25
2023-04-12T19:40:02.800Z,11.19
2023-04-12T19:42:05.644Z,11.22
2023-04-12T19:44:08.343Z,11.20
2023-04-12T19:46:12.026Z,11.17
2023-04-12T19:48:14.783Z,11.15
2023-04-12T19:50:17.949Z,11.14
2023-04-12T19:52:22.123Z,11.12
2023-04-12T19:54:25.732Z,11.10
2023-04-12T19:56:30.699Z,11.09
2023-04-12T19:58:33.668Z,11.03
2023-04-12T20:00:39.350Z,11.03
2023-04-12T20:02:42.616Z,11.00
2023-04-12T20:04:45.219Z,10.90
2023-04-12T20:06:52.057Z,10.94
2023-04-12T20:08:54.691Z,10.89
2023-04-12T20:10:57.341Z,10.86
2023-04-12T20:13:00.118Z,10.84
2023-04-12T20:15:04.580Z,10.83
2023-04-12T20:17:08.285Z,10.81
2023-04-12T20:19:12.165Z,10.79
2023-04-12T20:21:14.781Z,10.77
2023-04-12T20:23:17.815Z,10.75
2023-04-12T20:25:20.729Z,10.74
2023-04-12T20:27:23.399Z,10.70
2023-04-12T20:29:26.738Z,10.66
2023-04-12T20:31:29.493Z,10.66
2023-04-12T20:33:32.862Z,10.63
2023-04-12T20:35:35.721Z,10.61
2023-04-12T20:37:38.365Z,10.58
2023-04-12T20:39:41.065Z,10.55
2023-04-12T20:41:50.110Z,10.52
2023-04-12T20:43:52.831Z,10.50
2023-04-12T20:45:55.606Z,10.49
2023-04-12T20:47:58.349Z,10.46
2023-04-12T20:50:18.202Z,10.45
2023-04-12T20:52:20.985Z,10.45
2023-04-12T20:54:26.837Z,10.42
2023-04-12T20:56:29.487Z,10.38
2023-04-12T20:58:35.364Z,10.35
2023-04-12T21:00:40.700Z,10.34
2023-04-12T21:02:45.554Z,10.29
2023-04-12T21:04:48.663Z,10.27
2023-04-12T21:06:55.586Z,10.26
2023-04-12T21:08:59.081Z,10.26
2023-04-12T21:11:02.383Z,10.26
2023-04-12T21:13:05.088Z,10.23
2023-04-12T21:15:08.754Z,10.18
2023-04-12T21:17:11.741Z,10.22
2023-04-12T21:19:18.606Z,10.20
2023-04-12T21:21:21.710Z,10.16
2023-04-12T21:23:24.566Z,10.19
2023-04-12T21:25:27.174Z,10.18
2023-04-12T21:27:30.152Z,10.14
2023-04-12T21:29:34.631Z,10.13
2023-04-12T21:31:39.300Z,10.11
2023-04-12T21:33:42.492Z,10.10
2023-04-12T21:35:45.305Z,10.07
2023-04-12T21:37:47.991Z,10.06
2023-04-12T21:39:50.687Z,10.04
2023-04-12T21:41:53.489Z,10.03
2023-04-12T21:43:56.215Z,10.02
2023-04-12T21:45:58.873Z,10.00
2023-04-12T21:48:01.577Z,9.98
2023-04-12T21:50:04.759Z,9.97
2023-04-12T21:52:07.460Z,9.94
2023-04-12T21:54:10.164Z,9.92
2023-04-12T21:56:12.725Z,9.92
2023-04-12T21:58:15.944Z,9.91
2023-04-12T22:00:18.963Z,9.90
2023-04-12T22:02:21.700Z,9.90
2023-04-12T22:04:24.496Z,9.91
2023-04-12T22:06:27.452Z,9.85
2023-04-12T22:08:30.072Z,9.89
2023-04-12T22:10:34.665Z,9.90
2023-04-12T22:12:37.604Z,9.89
2023-04-12T22:14:46.736Z,9.89
2023-04-12T22:16:51.212Z,9.89
2023-04-12T22:18:55.758Z,9.82
2023-04-12T22:20:59.688Z,9.86
2023-04-12T22:23:03.182Z,9.82
2023-04-12T22:25:08.736Z,9.81
2023-04-12T22:27:11.634Z,9.80
2023-04-12T22:29:17.548Z,9.80
2023-04-12T22:31:23.151Z,9.78
2023-04-12T22:33:26.037Z,9.77
2023-04-12T22:35:30.235Z,9.73
2023-04-12T22:37:35.069Z,9.73
2023-04-12T22:39:37.946Z,9.71
2023-04-12T22:41:42.028Z,9.71
2023-04-12T22:43:47.852Z,9.74
2023-04-12T22:45:54.110Z,9.77
2023-04-12T22:47:57.200Z,9.79
2023-04-12T22:50:01.784Z,9.79
2023-04-12T22:52:06.766Z,9.85
2023-04-12T22:54:10.650Z,9.85
2023-04-12T22:56:13.646Z,9.79
2023-04-12T22:58:16.413Z,9.90
2023-04-12T23:00:19.027Z,9.91
2023-04-12T23:02:21.746Z,9.92
2023-04-12T23:04:24.438Z,9.93
2023-04-12T23:06:27.916Z,9.95
2023-04-12T23:08:31.039Z,9.94
2023-04-12T23:10:34.415Z,9.89
2023-04-12T23:12:37.630Z,9.85
2023-04-12T23:14:40.413Z,9.79
2023-04-12T23:16:44.585Z,9.73
2023-04-12T23:18:48.279Z,9.69
2023-04-12T23:20:51.564Z,9.64
2023-04-12T23:22:57.879Z,9.69
2023-04-12T23:25:02.437Z,9.69
2023-04-12T23:27:06.367Z,9.63
2023-04-12T23:29:09.196Z,9.59
2023-04-12T23:31:12.357Z,9.56
2023-04-12T23:33:20.472Z,9.51
2023-04-12T23:35:23.361Z,9.47
2023-04-12T23:37:25.949Z,9.46
2023-04-12T23:39:28.708Z,9.42
2023-04-12T23:41:32.301Z,9.42
2023-04-12T23:43:35.153Z,9.38
2023-04-12T23:45:38.679Z,9.36
2023-04-12T23:47:41.417Z,9.31
2023-04-12T23:49:44.104Z,9.30
2023-04-12T23:51:47.005Z,9.25
2023-04-12T23:53:50.396Z,9.35
2023-04-12T23:55:53.773Z,9.39
2023-04-12T23:57:56.472Z,9.43
2023-04-12T23:59:59.153Z,9.49
